sensor_id;sensor_type;location;lat;lon;timestamp;pressure;altitude;pressure_sealevel;temperature;humidity
68075;BME280;54864;52.002;5.468;2023-12-04T00:00:25;101153.13;;;2.98;86.31
68075;BME280;54864;52.002;5.468;2023-12-04T00:01:46;101154.78;;;3.07;85.69
68075;BME280;54864;52.002;5.468;2023-12-04T00:03:08;101160.91;;;3.01;85.75
68075;BME280;54864;52.002;5.468;2023-12-04T00:04:31;101162.72;;;2.92;85.89
68075;BME280;54864;52.002;5.468;2023-12-04T00:05:53;101171.41;;;2.94;85.85
68075;BME280;54864;52.002;5.468;2023-12-04T00:07:14;101162.88;;;2.75;85.40
68075;BME280;54864;52.002;5.468;2023-12-04T00:08:36;101165.50;;;2.70;85.60
68075;BME280;54864;52.002;5.468;2023-12-04T00:09:57;101159.38;;;2.79;86.30
68075;BME280;54864;52.002;5.468;2023-12-04T00:11:19;101158.59;;;2.68;86.44
68075;BME280;54864;52.002;5.468;2023-12-04T00:12:40;101151.66;;;2.67;86.56
68075;BME280;54864;52.002;5.468;2023-12-04T00:14:02;101154.19;;;2.74;86.80
68075;BME280;54864;52.002;5.468;2023-12-04T00:15:23;101157.53;;;2.90;86.45
68075;BME280;54864;52.002;5.468;2023-12-04T00:16:45;101147.03;;;2.99;86.10
68075;BME280;54864;52.002;5.468;2023-12-04T00:18:06;101158.34;;;2.98;85.75
68075;BME280;54864;52.002;5.468;2023-12-04T00:19:28;101146.16;;;3.00;85.14
68075;BME280;54864;52.002;5.468;2023-12-04T00:20:51;101145.28;;;3.01;85.17
68075;BME280;54864;52.002;5.468;2023-12-04T00:22:13;101141.91;;;2.90;85.95
68075;BME280;54864;52.002;5.468;2023-12-04T00:23:34;101144.44;;;2.99;85.90
68075;BME280;54864;52.002;5.468;2023-12-04T00:24:56;101137.53;;;2.94;85.55
68075;BME280;54864;52.002;5.468;2023-12-04T00:26:17;101143.66;;;2.88;85.35
68075;BME280;54864;52.002;5.468;2023-12-04T00:27:39;101135.84;;;2.88;85.10
68075;BME280;54864;52.002;5.468;2023-12-04T00:29:00;101138.50;;;2.85;85.07
68075;BME280;54864;52.002;5.468;2023-12-04T00:30:22;101133.19;;;2.94;85.64
68075;BME280;54864;52.002;5.468;2023-12-04T00:31:44;101134.91;;;2.97;84.98
68075;BME280;54864;52.002;5.468;2023-12-04T00:33:06;101136.75;;;2.85;85.16
68075;BME280;54864;52.002;5.468;2023-12-04T00:34:27;101125.50;;;2.83;85.55
68075;BME280;54864;52.002;5.468;2023-12-04T00:35:50;101124.59;;;2.86;86.13
68075;BME280;54864;52.002;5.468;2023-12-04T00:37:11;101121.19;;;2.78;85.29
68075;BME280;54864;52.002;5.468;2023-12-04T00:38:33;101120.25;;;2.86;86.06
68075;BME280;54864;52.002;5.468;2023-12-04T00:39:54;101115.16;;;2.74;85.51
68075;BME280;54864;52.002;5.468;2023-12-04T00:41:16;101116.00;;;2.78;86.19
68075;BME280;54864;52.002;5.468;2023-12-04T00:42:38;101111.72;;;2.71;86.57
68075;BME280;54864;52.002;5.468;2023-12-04T00:44:00;101107.31;;;2.77;86.59
68075;BME280;54864;52.002;5.468;2023-12-04T00:45:21;101116.06;;;2.70;86.85
68075;BME280;54864;52.002;5.468;2023-12-04T00:46:43;101116.06;;;2.69;86.50
68075;BME280;54864;52.002;5.468;2023-12-04T00:48:04;101107.44;;;2.64;86.78
68075;BME280;54864;52.002;5.468;2023-12-04T00:49:26;101098.75;;;2.65;86.95
68075;BME280;54864;52.002;5.468;2023-12-04T00:50:47;101084.91;;;2.61;87.32
68075;BME280;54864;52.002;5.468;2023-12-04T00:52:11;101099.63;;;2.65;87.12
68075;BME280;54864;52.002;5.468;2023-12-04T00:53:32;101103.13;;;2.61;87.81
68075;BME280;54864;52.002;5.468;2023-12-04T00:54:54;101100.41;;;2.75;87.38
68075;BME280;54864;52.002;5.468;2023-12-04T00:56:15;101098.63;;;2.78;87.27
68075;BME280;54864;52.002;5.468;2023-12-04T00:57:37;101092.63;;;2.72;87.71
68075;BME280;54864;52.002;5.468;2023-12-04T00:58:58;101096.84;;;2.83;87.38
68075;BME280;54864;52.002;5.468;2023-12-04T01:00:20;101089.03;;;2.85;87.08
68075;BME280;54864;52.002;5.468;2023-12-04T01:01:41;101089.00;;;2.88;86.65
68075;BME280;54864;52.002;5.468;2023-12-04T01:03:03;101087.28;;;2.84;86.65
68075;BME280;54864;52.002;5.468;2023-12-04T01:04:24;101087.25;;;2.87;86.20
68075;BME280;54864;52.002;5.468;2023-12-04T01:05:46;101089.00;;;2.86;86.68
68075;BME280;54864;52.002;5.468;2023-12-04T01:07:07;101081.09;;;2.97;86.07
68075;BME280;54864;52.002;5.468;2023-12-04T01:08:31;101082.00;;;2.93;85.61
68075;BME280;54864;52.002;5.468;2023-12-04T01:09:52;101082.94;;;2.84;85.65
68075;BME280;54864;52.002;5.468;2023-12-04T01:11:15;101079.44;;;2.89;85.92
68075;BME280;54864;52.002;5.468;2023-12-04T01:12:36;101086.47;;;2.80;85.85
68075;BME280;54864;52.002;5.468;2023-12-04T01:13:58;101082.19;;;2.75;85.48
68075;BME280;54864;52.002;5.468;2023-12-04T01:15:19;101080.31;;;2.89;86.01
68075;BME280;54864;52.002;5.468;2023-12-04T01:16:41;101083.03;;;2.77;86.22
68075;BME280;54864;52.002;5.468;2023-12-04T01:18:02;101082.16;;;2.78;85.87
68075;BME280;54864;52.002;5.468;2023-12-04T01:19:24;101081.28;;;2.77;85.95
68075;BME280;54864;52.002;5.468;2023-12-04T01:20:45;101081.25;;;2.80;86.43
68075;BME280;54864;52.002;5.468;2023-12-04T01:22:08;101080.28;;;2.91;86.01
68075;BME280;54864;52.002;5.468;2023-12-04T01:23:29;101078.56;;;2.90;85.57
68075;BME280;54864;52.002;5.468;2023-12-04T01:24:52;101073.38;;;2.88;86.20
68075;BME280;54864;52.002;5.468;2023-12-04T01:26:13;101079.38;;;2.95;86.42
68075;BME280;54864;52.002;5.468;2023-12-04T01:27:35;101074.34;;;2.78;86.40
68075;BME280;54864;52.002;5.468;2023-12-04T01:28:58;101074.38;;;2.75;86.61
68075;BME280;54864;52.002;5.468;2023-12-04T01:30:20;101074.34;;;2.78;87.27
68075;BME280;54864;52.002;5.468;2023-12-04T01:31:41;101068.16;;;2.88;86.24
68075;BME280;54864;52.002;5.468;2023-12-04T01:33:03;101063.00;;;2.85;86.13
68075;BME280;54864;52.002;5.468;2023-12-04T01:34:24;101066.56;;;2.73;86.20
68075;BME280;54864;52.002;5.468;2023-12-04T01:35:47;101065.69;;;2.76;86.99
68075;BME280;54864;52.002;5.468;2023-12-04T01:37:08;101063.94;;;2.75;86.68
68075;BME280;54864;52.002;5.468;2023-12-04T01:38:30;101058.69;;;2.79;86.59
68075;BME280;54864;52.002;5.468;2023-12-04T01:39:53;101062.97;;;2.86;86.78
68075;BME280;54864;52.002;5.468;2023-12-04T01:41:15;101063.00;;;2.82;86.53
68075;BME280;54864;52.002;5.468;2023-12-04T01:42:36;101057.75;;;2.86;86.37
68075;BME280;54864;52.002;5.468;2023-12-04T01:43:58;101060.44;;;2.80;85.83
68075;BME280;54864;52.002;5.468;2023-12-04T01:45:19;101057.81;;;2.80;86.22
68075;BME280;54864;52.002;5.468;2023-12-04T01:46:42;101056.06;;;2.84;85.93
68075;BME280;54864;52.002;5.468;2023-12-04T01:48:04;101064.69;;;2.88;85.74
68075;BME280;54864;52.002;5.468;2023-12-04T01:49:28;101056.06;;;2.82;85.76
68075;BME280;54864;52.002;5.468;2023-12-04T01:50:51;101044.78;;;2.83;85.70
68075;BME280;54864;52.002;5.468;2023-12-04T01:52:13;101050.78;;;2.90;85.14
68075;BME280;54864;52.002;5.468;2023-12-04T01:53:35;101047.31;;;2.90;85.66
68075;BME280;54864;52.002;5.468;2023-12-04T01:54:59;101050.75;;;2.93;85.29
68075;BME280;54864;52.002;5.468;2023-12-04T01:56:20;101049.00;;;2.94;85.26
68075;BME280;54864;52.002;5.468;2023-12-04T01:57:42;101055.16;;;2.88;85.02
68075;BME280;54864;52.002;5.468;2023-12-04T01:59:03;101045.59;;;2.89;84.99
68075;BME280;54864;52.002;5.468;2023-12-04T02:00:26;101029.19;;;2.79;85.34
68075;BME280;54864;52.002;5.468;2023-12-04T02:01:47;101038.72;;;2.81;85.34
68075;BME280;54864;52.002;5.468;2023-12-04T02:03:12;101037.09;;;2.71;85.45
68075;BME280;54864;52.002;5.468;2023-12-04T02:04:34;101038.91;;;2.62;86.13
68075;BME280;54864;52.002;5.468;2023-12-04T02:05:59;101028.50;;;2.62;86.14
68075;BME280;54864;52.002;5.468;2023-12-04T02:07:21;101031.00;;;2.74;86.59
68075;BME280;54864;52.002;5.468;2023-12-04T02:08:48;101030.09;;;2.76;86.33
68075;BME280;54864;52.002;5.468;2023-12-04T02:10:11;101024.84;;;2.79;85.93
68075;BME280;54864;52.002;5.468;2023-12-04T02:11:36;101028.25;;;2.86;85.51
68075;BME280;54864;52.002;5.468;2023-12-04T02:12:58;101023.09;;;2.83;85.66
68075;BME280;54864;52.002;5.468;2023-12-04T02:14:20;101026.53;;;2.86;85.57
68075;BME280;54864;52.002;5.468;2023-12-04T02:15:41;101016.09;;;2.86;85.26
68075;BME280;54864;52.002;5.468;2023-12-04T02:17:05;101017.91;;;2.81;86.18
68075;BME280;54864;52.002;5.468;2023-12-04T02:18:28;101016.06;;;2.90;85.42
68075;BME280;54864;52.002;5.468;2023-12-04T02:19:49;101022.06;;;2.98;85.31
68075;BME280;54864;52.002;5.468;2023-12-04T02:21:11;101016.75;;;3.07;85.39
68075;BME280;54864;52.002;5.468;2023-12-04T02:22:32;101020.34;;;2.97;84.72
68075;BME280;54864;52.002;5.468;2023-12-04T02:23:55;101019.44;;;2.98;84.81
68075;BME280;54864;52.002;5.468;2023-12-04T02:25:16;101016.00;;;2.97;84.44
68075;BME280;54864;52.002;5.468;2023-12-04T02:26:44;101006.34;;;3.05;83.96
68075;BME280;54864;52.002;5.468;2023-12-04T02:28:07;101008.09;;;3.05;83.77
68075;BME280;54864;52.002;5.468;2023-12-04T02:29:38;101009.94;;;2.95;83.87
68075;BME280;54864;52.002;5.468;2023-12-04T02:31:01;101007.22;;;3.06;83.69
68075;BME280;54864;52.002;5.468;2023-12-04T02:32:28;101000.41;;;2.94;84.45
68075;BME280;54864;52.002;5.468;2023-12-04T02:33:52;100998.59;;;3.01;84.17
68075;BME280;54864;52.002;5.468;2023-12-04T02:35:20;100996.88;;;3.00;84.48
68075;BME280;54864;52.002;5.468;2023-12-04T02:36:42;100991.66;;;2.98;84.29
68075;BME280;54864;52.002;5.468;2023-12-04T02:38:06;100988.97;;;3.06;84.06
68075;BME280;54864;52.002;5.468;2023-12-04T02:39:29;100985.41;;;3.13;83.68
68075;BME280;54864;52.002;5.468;2023-12-04T02:40:51;100985.41;;;3.13;83.49
68075;BME280;54864;52.002;5.468;2023-12-04T02:42:12;100980.41;;;2.96;83.04
68075;BME280;54864;52.002;5.468;2023-12-04T02:43:35;100985.72;;;2.89;83.73
68075;BME280;54864;52.002;5.468;2023-12-04T02:44:56;100984.91;;;2.83;84.19
68075;BME280;54864;52.002;5.468;2023-12-04T02:46:18;100977.91;;;2.87;84.04
68075;BME280;54864;52.002;5.468;2023-12-04T02:47:39;100974.53;;;2.80;83.69
68075;BME280;54864;52.002;5.468;2023-12-04T02:49:01;100972.78;;;2.79;84.11
68075;BME280;54864;52.002;5.468;2023-12-04T02:50:22;100975.53;;;2.66;84.20
68075;BME280;54864;52.002;5.468;2023-12-04T02:51:44;100971.25;;;2.59;84.62
68075;BME280;54864;52.002;5.468;2023-12-04T02:53:06;100972.06;;;2.68;85.23
68075;BME280;54864;52.002;5.468;2023-12-04T02:54:29;100964.22;;;2.71;85.11
68075;BME280;54864;52.002;5.468;2023-12-04T02:55:51;100959.88;;;2.72;84.98
68075;BME280;54864;52.002;5.468;2023-12-04T02:57:12;100956.31;;;2.79;84.78
68075;BME280;54864;52.002;5.468;2023-12-04T02:58:34;100957.31;;;2.67;84.70
68075;BME280;54864;52.002;5.468;2023-12-04T02:59:55;100961.63;;;2.70;85.18
68075;BME280;54864;52.002;5.468;2023-12-04T03:01:17;100952.88;;;2.75;85.21
68075;BME280;54864;52.002;5.468;2023-12-04T03:02:38;100960.59;;;2.83;84.47
68075;BME280;54864;52.002;5.468;2023-12-04T03:04:00;100958.09;;;2.75;84.08
68075;BME280;54864;52.002;5.468;2023-12-04T03:05:21;100956.47;;;2.64;84.77
68075;BME280;54864;52.002;5.468;2023-12-04T03:06:43;100945.19;;;2.66;84.55
68075;BME280;54864;52.002;5.468;2023-12-04T03:08:04;100947.59;;;2.81;84.29
68075;BME280;54864;52.002;5.468;2023-12-04T03:09:26;100951.94;;;2.82;84.88
68075;BME280;54864;52.002;5.468;2023-12-04T03:10:49;100938.84;;;2.89;83.65
68075;BME280;54864;52.002;5.468;2023-12-04T03:12:11;100947.41;;;2.97;83.29
68075;BME280;54864;52.002;5.468;2023-12-04T03:13:32;100934.47;;;2.91;83.84
68075;BME280;54864;52.002;5.468;2023-12-04T03:14:54;100943.09;;;2.96;83.94
68075;BME280;54864;52.002;5.468;2023-12-04T03:16:15;100938.69;;;3.01;83.14
68075;BME280;54864;52.002;5.468;2023-12-04T03:17:37;100931.66;;;3.07;83.07
68075;BME280;54864;52.002;5.468;2023-12-04T03:18:59;100923.81;;;3.10;82.51
68075;BME280;54864;52.002;5.468;2023-12-04T03:20:21;100926.50;;;3.04;82.84
68075;BME280;54864;52.002;5.468;2023-12-04T03:21:42;100926.44;;;3.09;83.29
68075;BME280;54864;52.002;5.468;2023-12-04T03:23:04;100920.28;;;3.13;83.01
68075;BME280;54864;52.002;5.468;2023-12-04T03:24:25;100921.19;;;3.10;82.83
68075;BME280;54864;52.002;5.468;2023-12-04T03:25:49;100925.59;;;3.07;82.53
68075;BME280;54864;52.002;5.468;2023-12-04T03:27:10;100923.84;;;3.07;82.24
68075;BME280;54864;52.002;5.468;2023-12-04T03:28:32;100915.16;;;3.07;82.63
68075;BME280;54864;52.002;5.468;2023-12-04T03:29:53;100924.66;;;3.11;82.46
68075;BME280;54864;52.002;5.468;2023-12-04T03:31:15;100923.97;;;2.97;82.70
68075;BME280;54864;52.002;5.468;2023-12-04T03:32:36;100910.13;;;2.95;82.04
68075;BME280;54864;52.002;5.468;2023-12-04T03:33:58;100912.72;;;2.96;82.22
68075;BME280;54864;52.002;5.468;2023-12-04T03:35:19;100920.41;;;3.04;82.54
68075;BME280;54864;52.002;5.468;2023-12-04T03:36:41;100912.91;;;2.79;82.30
68075;BME280;54864;52.002;5.468;2023-12-04T03:38:02;100906.84;;;2.80;82.74
68075;BME280;54864;52.002;5.468;2023-12-04T03:39:24;100918.94;;;2.83;82.89
68075;BME280;54864;52.002;5.468;2023-12-04T03:40:45;100906.78;;;2.83;82.56
68075;BME280;54864;52.002;5.468;2023-12-04T03:42:08;100901.53;;;2.88;82.43
68075;BME280;54864;52.002;5.468;2023-12-04T03:43:29;100893.78;;;2.82;82.04
68075;BME280;54864;52.002;5.468;2023-12-04T03:44:51;100896.44;;;2.79;82.45
68075;BME280;54864;52.002;5.468;2023-12-04T03:46:12;100898.19;;;2.77;82.55
68075;BME280;54864;52.002;5.468;2023-12-04T03:47:34;100901.81;;;2.65;83.29
68075;BME280;54864;52.002;5.468;2023-12-04T03:48:56;100885.38;;;2.59;83.26
68075;BME280;54864;52.002;5.468;2023-12-04T03:50:18;100894.88;;;2.64;83.13
68075;BME280;54864;52.002;5.468;2023-12-04T03:51:39;100889.66;;;2.66;83.08
68075;BME280;54864;52.002;5.468;2023-12-04T03:53:01;100890.44;;;2.72;83.23
68075;BME280;54864;52.002;5.468;2023-12-04T03:54:22;100887.00;;;2.70;82.78
68075;BME280;54864;52.002;5.468;2023-12-04T03:55:44;100880.94;;;2.68;83.13
68075;BME280;54864;52.002;5.468;2023-12-04T03:57:05;100879.94;;;2.80;82.59
68075;BME280;54864;52.002;5.468;2023-12-04T03:58:28;100882.56;;;2.78;82.53
68075;BME280;54864;52.002;5.468;2023-12-04T03:59:49;100877.41;;;2.75;82.79
68075;BME280;54864;52.002;5.468;2023-12-04T04:01:11;100872.16;;;2.77;83.57
68075;BME280;54864;52.002;5.468;2023-12-04T04:02:33;100875.59;;;2.80;82.73
68075;BME280;54864;52.002;5.468;2023-12-04T04:03:55;100863.53;;;2.73;82.70
68075;BME280;54864;52.002;5.468;2023-12-04T04:05:16;100873.13;;;2.70;83.14
68075;BME280;54864;52.002;5.468;2023-12-04T04:06:38;100867.00;;;2.74;83.23
68075;BME280;54864;52.002;5.468;2023-12-04T04:07:59;100874.72;;;2.80;83.26
68075;BME280;54864;52.002;5.468;2023-12-04T04:09:21;100859.06;;;2.83;82.48
68075;BME280;54864;52.002;5.468;2023-12-04T04:10:42;100868.72;;;2.75;82.86
68075;BME280;54864;52.002;5.468;2023-12-04T04:12:06;100862.94;;;2.50;82.56
68075;BME280;54864;52.002;5.468;2023-12-04T04:13:28;100861.97;;;2.60;83.57
68075;BME280;54864;52.002;5.468;2023-12-04T04:14:50;100852.31;;;2.68;82.99
68075;BME280;54864;52.002;5.468;2023-12-04T04:16:14;100845.38;;;2.69;82.56
68075;BME280;54864;52.002;5.468;2023-12-04T04:17:36;100863.56;;;2.72;82.63
68075;BME280;54864;52.002;5.468;2023-12-04T04:18:57;100846.25;;;2.68;83.19
68075;BME280;54864;52.002;5.468;2023-12-04T04:20:20;100853.94;;;2.77;82.85
68075;BME280;54864;52.002;5.468;2023-12-04T04:21:41;100848.88;;;2.66;82.08
68075;BME280;54864;52.002;5.468;2023-12-04T04:23:03;100849.75;;;2.67;81.99
68075;BME280;54864;52.002;5.468;2023-12-04T04:24:24;100848.06;;;2.61;82.76
68075;BME280;54864;52.002;5.468;2023-12-04T04:25:46;100838.53;;;2.62;82.42
68075;BME280;54864;52.002;5.468;2023-12-04T04:27:07;100839.63;;;2.41;82.65
68075;BME280;54864;52.002;5.468;2023-12-04T04:28:30;100843.00;;;2.47;83.20
68075;BME280;54864;52.002;5.468;2023-12-04T04:29:52;100837.81;;;2.47;82.97
68075;BME280;54864;52.002;5.468;2023-12-04T04:31:14;100840.47;;;2.43;82.43
68075;BME280;54864;52.002;5.468;2023-12-04T04:32:35;100839.56;;;2.45;83.27
68075;BME280;54864;52.002;5.468;2023-12-04T04:33:57;100839.50;;;2.50;83.38
68075;BME280;54864;52.002;5.468;2023-12-04T04:35:18;100836.91;;;2.50;83.25
68075;BME280;54864;52.002;5.468;2023-12-04T04:36:40;100836.16;;;2.40;82.69
68075;BME280;54864;52.002;5.468;2023-12-04T04:38:02;100836.03;;;2.51;82.98
68075;BME280;54864;52.002;5.468;2023-12-04T04:39:23;100838.66;;;2.49;83.46
68075;BME280;54864;52.002;5.468;2023-12-04T04:40:45;100825.53;;;2.57;82.71
68075;BME280;54864;52.002;5.468;2023-12-04T04:42:06;100836.72;;;2.67;82.14
68075;BME280;54864;52.002;5.468;2023-12-04T04:43:28;100832.34;;;2.70;82.06
68075;BME280;54864;52.002;5.468;2023-12-04T04:44:51;100836.75;;;2.65;82.60
68075;BME280;54864;52.002;5.468;2023-12-04T04:46:13;100834.91;;;2.73;82.39
68075;BME280;54864;52.002;5.468;2023-12-04T04:47:34;100837.53;;;2.72;81.83
68075;BME280;54864;52.002;5.468;2023-12-04T04:48:56;100830.63;;;2.69;81.96
68075;BME280;54864;52.002;5.468;2023-12-04T04:50:17;100829.00;;;2.58;81.79
68075;BME280;54864;52.002;5.468;2023-12-04T04:51:39;100826.50;;;2.48;82.01
68075;BME280;54864;52.002;5.468;2023-12-04T04:53:01;100828.91;;;2.67;82.20
68075;BME280;54864;52.002;5.468;2023-12-04T04:54:23;100832.44;;;2.60;82.42
68075;BME280;54864;52.002;5.468;2023-12-04T04:55:44;100829.81;;;2.66;81.90
68075;BME280;54864;52.002;5.468;2023-12-04T04:57:06;100830.72;;;2.62;82.59
68075;BME280;54864;52.002;5.468;2023-12-04T04:58:28;100816.00;;;2.58;82.19
68075;BME280;54864;52.002;5.468;2023-12-04T04:59:52;100827.22;;;2.64;81.97
68075;BME280;54864;52.002;5.468;2023-12-04T05:01:14;100822.91;;;2.62;82.42
68075;BME280;54864;52.002;5.468;2023-12-04T05:02:36;100822.97;;;2.54;81.88
68075;BME280;54864;52.002;5.468;2023-12-04T05:03:58;100818.69;;;2.50;82.93
68075;BME280;54864;52.002;5.468;2023-12-04T05:05:20;100817.03;;;2.44;82.50
68075;BME280;54864;52.002;5.468;2023-12-04T05:06:41;100819.69;;;2.38;82.96
68075;BME280;54864;52.002;5.468;2023-12-04T05:08:04;100821.34;;;2.45;83.09
68075;BME280;54864;52.002;5.468;2023-12-04T05:09:25;100820.41;;;2.51;82.84
68075;BME280;54864;52.002;5.468;2023-12-04T05:10:47;100821.22;;;2.56;81.91
68075;BME280;54864;52.002;5.468;2023-12-04T05:12:08;100824.56;;;2.67;82.23
68075;BME280;54864;52.002;5.468;2023-12-04T05:13:30;100823.72;;;2.67;81.78
68075;BME280;54864;52.002;5.468;2023-12-04T05:14:52;100817.56;;;2.72;81.51
68075;BME280;54864;52.002;5.468;2023-12-04T05:16:14;100814.03;;;2.78;81.81
68075;BME280;54864;52.002;5.468;2023-12-04T05:17:35;100821.09;;;2.67;81.70
68075;BME280;54864;52.002;5.468;2023-12-04T05:18:57;100809.09;;;2.53;81.75
68075;BME280;54864;52.002;5.468;2023-12-04T05:20:18;100822.88;;;2.65;81.22
68075;BME280;54864;52.002;5.468;2023-12-04T05:21:40;100816.19;;;2.42;81.62
68075;BME280;54864;52.002;5.468;2023-12-04T05:23:01;100812.72;;;2.43;82.25
68075;BME280;54864;52.002;5.468;2023-12-04T05:24:23;100814.28;;;2.55;81.83
68075;BME280;54864;52.002;5.468;2023-12-04T05:25:44;100810.91;;;2.48;81.37
68075;BME280;54864;52.002;5.468;2023-12-04T05:27:06;100796.19;;;2.47;81.10
68075;BME280;54864;52.002;5.468;2023-12-04T05:28:28;100805.81;;;2.39;81.44
68075;BME280;54864;52.002;5.468;2023-12-04T05:29:51;100799.78;;;2.37;81.70
68075;BME280;54864;52.002;5.468;2023-12-04T05:31:12;100803.94;;;2.50;82.22
68075;BME280;54864;52.002;5.468;2023-12-04T05:32:34;100798.81;;;2.44;81.88
68075;BME280;54864;52.002;5.468;2023-12-04T05:33:55;100788.47;;;2.40;81.84
68075;BME280;54864;52.002;5.468;2023-12-04T05:35:17;100784.00;;;2.49;81.88
68075;BME280;54864;52.002;5.468;2023-12-04T05:36:39;100798.72;;;2.52;81.47
68075;BME280;54864;52.002;5.468;2023-12-04T05:38:01;100784.75;;;2.58;81.85
68075;BME280;54864;52.002;5.468;2023-12-04T05:39:22;100782.06;;;2.67;81.28
68075;BME280;54864;52.002;5.468;2023-12-04T05:40:44;100785.44;;;2.75;81.27
68075;BME280;54864;52.002;5.468;2023-12-04T05:42:06;100775.88;;;2.75;80.97
68075;BME280;54864;52.002;5.468;2023-12-04T05:43:28;100768.13;;;2.71;80.88
68075;BME280;54864;52.002;5.468;2023-12-04T05:44:49;100771.75;;;2.61;81.06
68075;BME280;54864;52.002;5.468;2023-12-04T05:46:15;100772.50;;;2.69;80.84
68075;BME280;54864;52.002;5.468;2023-12-04T05:47:36;100770.81;;;2.66;80.81
68075;BME280;54864;52.002;5.468;2023-12-04T05:48:58;100768.13;;;2.71;80.83
68075;BME280;54864;52.002;5.468;2023-12-04T05:50:19;100762.16;;;2.64;80.93
68075;BME280;54864;52.002;5.468;2023-12-04T05:51:41;100767.28;;;2.69;80.31
68075;BME280;54864;52.002;5.468;2023-12-04T05:53:03;100763.69;;;2.79;80.95
68075;BME280;54864;52.002;5.468;2023-12-04T05:54:25;100760.06;;;2.89;80.31
68075;BME280;54864;52.002;5.468;2023-12-04T05:55:46;100760.00;;;2.92;79.95
68075;BME280;54864;52.002;5.468;2023-12-04T05:57:08;100762.88;;;2.74;79.28
68075;BME280;54864;52.002;5.468;2023-12-04T05:58:29;100763.00;;;2.66;79.22
68075;BME280;54864;52.002;5.468;2023-12-04T05:59:51;100763.94;;;2.61;78.66
68075;BME280;54864;52.002;5.468;2023-12-04T06:01:12;100752.75;;;2.52;79.74
68075;BME280;54864;52.002;5.468;2023-12-04T06:02:37;100750.97;;;2.56;79.92
68075;BME280;54864;52.002;5.468;2023-12-04T06:03:58;100740.75;;;2.41;79.38
68075;BME280;54864;52.002;5.468;2023-12-04T06:05:20;100758.00;;;2.49;79.84
68075;BME280;54864;52.002;5.468;2023-12-04T06:06:43;100754.50;;;2.50;80.48
68075;BME280;54864;52.002;5.468;2023-12-04T06:08:05;100748.31;;;2.59;79.84
68075;BME280;54864;52.002;5.468;2023-12-04T06:09:26;100750.88;;;2.64;80.67
68075;BME280;54864;52.002;5.468;2023-12-04T06:10:48;100753.31;;;2.76;79.35
68075;BME280;54864;52.002;5.468;2023-12-04T06:12:10;100769.88;;;2.70;79.29
68075;BME280;54864;52.002;5.468;2023-12-04T06:13:31;100754.28;;;2.69;79.08
68075;BME280;54864;52.002;5.468;2023-12-04T06:14:53;100760.44;;;2.63;78.96
68075;BME280;54864;52.002;5.468;2023-12-04T06:16:14;100755.28;;;2.57;78.31
68075;BME280;54864;52.002;5.468;2023-12-04T06:17:37;100760.63;;;2.46;79.78
68075;BME280;54864;52.002;5.468;2023-12-04T06:18:59;100758.81;;;2.51;79.53
68075;BME280;54864;52.002;5.468;2023-12-04T06:20:21;100755.31;;;2.54;79.65
68075;BME280;54864;52.002;5.468;2023-12-04T06:21:42;100765.66;;;2.59;78.49
68075;BME280;54864;52.002;5.468;2023-12-04T06:23:04;100745.97;;;2.41;78.22
68075;BME280;54864;52.002;5.468;2023-12-04T06:24:26;100763.06;;;2.59;78.15
68075;BME280;54864;52.002;5.468;2023-12-04T06:25:49;100754.41;;;2.58;78.37
68075;BME280;54864;52.002;5.468;2023-12-04T06:27:11;100755.22;;;2.63;78.37
68075;BME280;54864;52.002;5.468;2023-12-04T06:28:37;100748.38;;;2.54;78.69
68075;BME280;54864;52.002;5.468;2023-12-04T06:29:59;100749.22;;;2.57;78.88
68075;BME280;54864;52.002;5.468;2023-12-04T06:31:21;100746.63;;;2.57;78.37
68075;BME280;54864;52.002;5.468;2023-12-04T06:32:45;100742.16;;;2.68;78.10
68075;BME280;54864;52.002;5.468;2023-12-04T06:34:07;100746.50;;;2.66;77.99
68075;BME280;54864;52.002;5.468;2023-12-04T06:35:29;100731.75;;;2.66;78.00
68075;BME280;54864;52.002;5.468;2023-12-04T06:36:51;100736.28;;;2.50;78.21
68075;BME280;54864;52.002;5.468;2023-12-04T06:38:15;100729.31;;;2.52;78.21
68075;BME280;54864;52.002;5.468;2023-12-04T06:39:38;100732.81;;;2.50;78.63
68075;BME280;54864;52.002;5.468;2023-12-04T06:41:00;100731.94;;;2.52;77.96
68075;BME280;54864;52.002;5.468;2023-12-04T06:42:23;100726.00;;;2.43;76.79
68075;BME280;54864;52.002;5.468;2023-12-04T06:43:45;100717.41;;;2.36;77.51
68075;BME280;54864;52.002;5.468;2023-12-04T06:45:08;100714.66;;;2.47;77.83
68075;BME280;54864;52.002;5.468;2023-12-04T06:46:30;100710.28;;;2.50;78.79
68075;BME280;54864;52.002;5.468;2023-12-04T06:47:54;100712.34;;;2.27;78.28
68075;BME280;54864;52.002;5.468;2023-12-04T06:49:19;100708.16;;;2.15;78.81
68075;BME280;54864;52.002;5.468;2023-12-04T06:50:41;100699.19;;;2.36;78.57
68075;BME280;54864;52.002;5.468;2023-12-04T06:52:03;100701.66;;;2.45;78.04
68075;BME280;54864;52.002;5.468;2023-12-04T06:53:25;100706.97;;;2.38;78.84
68075;BME280;54864;52.002;5.468;2023-12-04T06:54:46;100701.75;;;2.41;78.53
68075;BME280;54864;52.002;5.468;2023-12-04T06:56:09;100693.13;;;2.37;77.52
68075;BME280;54864;52.002;5.468;2023-12-04T06:57:30;100693.97;;;2.39;78.56
68075;BME280;54864;52.002;5.468;2023-12-04T06:58:52;100687.97;;;2.33;78.16
68075;BME280;54864;52.002;5.468;2023-12-04T07:00:14;100692.19;;;2.41;77.62
68075;BME280;54864;52.002;5.468;2023-12-04T07:01:37;100696.56;;;2.38;77.78
68075;BME280;54864;52.002;5.468;2023-12-04T07:02:59;100686.06;;;2.45;77.94
68075;BME280;54864;52.002;5.468;2023-12-04T07:04:21;100688.56;;;2.51;76.31
68075;BME280;54864;52.002;5.468;2023-12-04T07:05:42;100690.31;;;2.51;76.87
68075;BME280;54864;52.002;5.468;2023-12-04T07:07:05;100690.44;;;2.42;76.93
68075;BME280;54864;52.002;5.468;2023-12-04T07:08:26;100681.00;;;2.36;76.39
68075;BME280;54864;52.002;5.468;2023-12-04T07:09:48;100678.31;;;2.42;77.99
68075;BME280;54864;52.002;5.468;2023-12-04T07:11:09;100677.25;;;2.55;77.56
68075;BME280;54864;52.002;5.468;2023-12-04T07:12:31;100672.09;;;2.52;76.79
68075;BME280;54864;52.002;5.468;2023-12-04T07:13:52;100674.66;;;2.54;76.48